createdAt,value
2022-08-16T07:02:58.812Z,96731.97
2022-08-16T07:05:41.427Z,96724.22
2022-08-16T07:08:11.446Z,96721.53
2022-08-16T07:10:41.675Z,96730.88
2022-08-16T07:13:11.583Z,96732.00
2022-08-16T07:15:50.090Z,96732.56
2022-08-16T07:18:20.204Z,96725.88
2022-08-16T07:20:50.602Z,96721.41
2022-08-16T07:23:19.333Z,96727.66
2022-08-16T07:25:47.528Z,96722.16
2022-08-16T07:28:20.862Z,96731.91
2022-08-16T07:30:52.494Z,96725.16
2022-08-16T07:33:51.438Z,96733.97
2022-08-16T07:36:09.900Z,96731.13
2022-08-16T07:38:41.258Z,96735.34
2022-08-16T07:41:11.072Z,96745.63
2022-08-16T07:43:43.427Z,96739.22
2022-08-16T07:46:37.380Z,96736.38
2022-08-16T07:49:03.155Z,96739.00
2022-08-16T07:51:34.202Z,96739.00
2022-08-16T07:54:09.330Z,96738.34
2022-08-16T07:56:39.269Z,96732.16
2022-08-16T07:59:07.208Z,96734.50
2022-08-16T08:01:36.902Z,96740.16
2022-08-16T08:04:07.205Z,96735.44
2022-08-16T08:06:42.868Z,96731.53
2022-08-16T08:09:11.630Z,96734.97
2022-08-16T08:11:41.497Z,96746.47
2022-08-16T08:14:29.438Z,96739.75
2022-08-16T08:16:58.001Z,96739.19
2022-08-16T08:19:30.659Z,96745.69
2022-08-16T08:22:02.119Z,96749.91
2022-08-16T08:24:35.884Z,96755.53
2022-08-16T08:27:07.864Z,96752.88
2022-08-16T08:29:40.431Z,96748.41
2022-08-16T08:32:56.967Z,96750.00
2022-08-16T08:35:03.954Z,96747.22
2022-08-16T08:37:54.338Z,96749.38
2022-08-16T08:40:24.662Z,96755.28
2022-08-16T08:43:00.371Z,96755.31
2022-08-16T08:45:48.295Z,96754.84
2022-08-16T08:48:33.123Z,96754.22
2022-08-16T08:51:09.185Z,96755.91
2022-08-16T08:53:37.512Z,96758.41
2022-08-16T08:56:22.922Z,96769.00
2022-08-16T08:59:05.985Z,96776.34
2022-08-16T09:02:09.380Z,96768.78
2022-08-16T09:04:41.552Z,96766.53
2022-08-16T09:07:23.610Z,96766.25
2022-08-16T09:10:06.183Z,96767.84
2022-08-16T09:12:40.536Z,96766.00
2022-08-16T09:15:17.618Z,96770.59
2022-08-16T09:17:52.315Z,96776.31
2022-08-16T09:20:25.603Z,96778.41
2022-08-16T09:22:55.547Z,96769.34
2022-08-16T09:25:26.316Z,96771.53
2022-08-16T09:27:57.626Z,96777.00
2022-08-16T09:30:32.620Z,96778.31
2022-08-16T09:33:06.630Z,96768.13
2022-08-16T09:35:37.309Z,96767.66
2022-08-16T09:38:08.699Z,96768.34
2022-08-16T09:40:42.564Z,96770.16
2022-08-16T09:43:37.783Z,96773.06
2022-08-16T09:46:04.427Z,96760.53
2022-08-16T09:48:53.221Z,96762.00
2022-08-16T09:51:25.773Z,96753.03
2022-08-16T09:54:00.004Z,96756.97
2022-08-16T09:56:31.635Z,96756.72
2022-08-16T09:59:05.843Z,96751.75
2022-08-16T10:01:36.343Z,96758.41
2022-08-16T10:04:08.162Z,96755.03
2022-08-16T10:06:54.050Z,96755.34
2022-08-16T10:09:27.140Z,96752.69
2022-08-16T10:12:19.758Z,96753.03
2022-08-16T10:14:47.637Z,96757.94
2022-08-16T10:17:15.688Z,96761.22
2022-08-16T10:19:44.109Z,96751.28
2022-08-16T10:22:12.745Z,96750.28
2022-08-16T10:24:55.916Z,96755.88
2022-08-16T10:27:46.926Z,96750.03
2022-08-16T10:30:25.215Z,96751.06
2022-08-16T10:32:54.268Z,96745.81
2022-08-16T10:35:23.548Z,96743.41
2022-08-16T10:37:52.419Z,96742.84
2022-08-16T10:40:29.614Z,96739.88
2022-08-16T10:42:59.269Z,96740.72
2022-08-16T10:45:28.480Z,96743.22
2022-08-16T10:48:27.464Z,96740.44
2022-08-16T10:50:59.924Z,96734.75
2022-08-16T10:53:32.868Z,96729.47
2022-08-16T10:56:51.393Z,96726.72
2022-08-16T10:58:54.240Z,96728.47
2022-08-16T11:01:43.616Z,96734.25
2022-08-16T11:07:08.327Z,96730.19
2022-08-16T11:09:42.992Z,96731.00
2022-08-16T11:12:13.579Z,96732.72
2022-08-16T11:15:11.315Z,96732.16
2022-08-16T11:17:32.773Z,96728.41
2022-08-16T11:20:36.771Z,96731.97
2022-08-16T11:22:50.431Z,96729.41
2022-08-16T11:28:12.222Z,96716.28
2022-08-16T11:30:59.540Z,96727.84
2022-08-16T11:36:27.980Z,96726.69
2022-08-16T11:38:59.004Z,96724.63
2022-08-16T11:41:29.440Z,96723.19
2022-08-16T11:44:06.137Z,96712.78
2022-08-16T11:46:45.100Z,96718.47
2022-08-16T11:49:17.314Z,96712.19
2022-08-16T11:51:45.650Z,96711.13
2022-08-16T11:54:20.172Z,96703.81
2022-08-16T11:56:57.320Z,96703.06
2022-08-16T11:59:28.732Z,96710.47
2022-08-16T12:02:30.631Z,96703.81
2022-08-16T12:04:51.766Z,96703.00
2022-08-16T12:07:23.519Z,96692.19
2022-08-16T12:09:53.241Z,96693.09
2022-08-16T12:12:23.518Z,96689.78
2022-08-16T12:14:59.942Z,96695.63
2022-08-16T12:17:31.641Z,96691.41
2022-08-16T12:20:00.117Z,96696.28
2022-08-16T12:22:29.048Z,96686.03
2022-08-16T12:24:58.334Z,96695.59
2022-08-16T12:27:27.163Z,96682.59
2022-08-16T12:29:58.307Z,96682.44
2022-08-16T12:32:38.628Z,96683.41
2022-08-16T12:35:12.667Z,96680.28
2022-08-16T12:37:41.888Z,96678.66
2022-08-16T12:40:23.929Z,96678.94
2022-08-16T12:42:58.475Z,96673.59
2022-08-16T12:45:31.118Z,96675.44
2022-08-16T12:48:29.415Z,96673.53
2022-08-16T12:50:50.461Z,96672.59
2022-08-16T12:53:32.062Z,96675.81
2022-08-16T12:56:00.822Z,96667.72
2022-08-16T12:58:49.884Z,96673.47
2022-08-16T13:01:22.581Z,96666.97
2022-08-16T13:04:08.223Z,96658.34
2022-08-16T13:06:39.401Z,96664.06
2022-08-16T13:09:09.826Z,96661.06
2022-08-16T13:11:41.563Z,96662.66
2022-08-16T13:14:31.291Z,96657.03
2022-08-16T13:17:18.745Z,96651.41
2022-08-16T13:20:28.522Z,96640.28
2022-08-16T13:23:02.027Z,96640.78
2022-08-16T13:25:34.655Z,96639.41
2022-08-16T13:28:04.649Z,96639.59
2022-08-16T13:30:40.116Z,96639.94
2022-08-16T13:33:17.578Z,96639.97
2022-08-16T13:35:56.224Z,96634.28
2022-08-16T13:38:28.210Z,96631.84
2022-08-16T13:41:01.373Z,96622.84
2022-08-16T13:43:39.463Z,96610.59
2022-08-16T13:46:07.842Z,96620.03
2022-08-16T13:48:44.699Z,96610.63
2022-08-16T13:51:19.600Z,96615.31
2022-08-16T13:53:59.524Z,96611.22
2022-08-16T13:56:37.567Z,96598.59
2022-08-16T13:59:20.898Z,96601.66
2022-08-16T14:01:55.211Z,96598.66
2022-08-16T14:04:31.261Z,96600.84
2022-08-16T14:07:01.322Z,96585.03
2022-08-16T14:09:33.547Z,96592.13
2022-08-16T14:12:09.776Z,96586.44
2022-08-16T14:14:45.435Z,96585.38
2022-08-16T14:17:16.626Z,96579.56
2022-08-16T14:19:47.429Z,96576.66
2022-08-16T14:22:31.057Z,96573.03
2022-08-16T14:25:07.228Z,96569.75
2022-08-16T14:27:38.942Z,96567.44
2022-08-16T14:30:15.527Z,96565.72
2022-08-16T14:32:46.853Z,96561.09
2022-08-16T14:35:48.181Z,96561.75
2022-08-16T14:38:19.025Z,96565.72
2022-08-16T14:40:55.416Z,96553.28
2022-08-16T14:43:25.780Z,96555.50
2022-08-16T14:45:58.045Z,96557.28
2022-08-16T14:48:28.213Z,96554.91
2022-08-16T14:50:57.695Z,96552.97
2022-08-16T14:53:27.290Z,96548.78
2022-08-16T14:55:56.948Z,96554.31
2022-08-16T14:58:34.954Z,96552.34
2022-08-16T15:01:09.729Z,96541.94
2022-08-16T15:03:44.635Z,96538.16
2022-08-16T15:06:14.773Z,96532.94
2022-08-16T15:08:45.217Z,96537.84
2022-08-16T15:11:16.733Z,96534.44
2022-08-16T15:13:45.854Z,96526.38
2022-08-16T15:16:15.400Z,96532.91
2022-08-16T15:18:50.565Z,96527.78
2022-08-16T15:21:19.609Z,96531.25
2022-08-16T15:23:50.761Z,96522.88
2022-08-16T15:26:34.825Z,96520.44
2022-08-16T15:29:13.091Z,96521.53
2022-08-16T15:31:42.246Z,96523.53
2022-08-16T15:34:19.038Z,96518.44
2022-08-16T15:36:52.323Z,96517.31
2022-08-16T15:39:26.955Z,96504.34
2022-08-16T15:42:11.075Z,96505.69
2022-08-16T15:44:51.290Z,96501.75
2022-08-16T15:47:22.111Z,96496.63
2022-08-16T15:49:56.302Z,96496.81
2022-08-16T15:52:29.558Z,96500.84
2022-08-16T15:55:07.567Z,96497.78
2022-08-16T15:57:51.190Z,96501.84
2022-08-16T16:00:26.512Z,96501.59
2022-08-16T16:03:02.264Z,96497.16
2022-08-16T16:05:30.007Z,96502.06
2022-08-16T16:08:11.066Z,96495.50
2022-08-16T16:10:42.349Z,96488.34
2022-08-16T16:13:12.906Z,96491.00
2022-08-16T16:15:52.041Z,96490.81
2022-08-16T16:18:23.448Z,96487.16
2022-08-16T16:20:54.779Z,96481.03
2022-08-16T16:23:31.335Z,96483.50
2022-08-16T16:26:05.740Z,96472.53
2022-08-16T16:29:06.024Z,96481.31
2022-08-16T16:31:24.052Z,96471.22
2022-08-16T16:33:56.897Z,96476.97
2022-08-16T16:36:28.716Z,96484.19
2022-08-16T16:38:59.199Z,96475.59
2022-08-16T16:41:30.257Z,96463.25
2022-08-16T16:46:43.936Z,96465.75
2022-08-16T16:49:15.157Z,96473.72
2022-08-16T16:51:49.781Z,96470.03
2022-08-16T16:54:27.480Z,96464.34
2022-08-16T16:57:00.023Z,96457.13
2022-08-16T16:59:29.445Z,96445.16
2022-08-16T17:02:38.870Z,96445.13
2022-08-16T17:04:48.952Z,96446.13
2022-08-16T17:07:23.953Z,96447.41
2022-08-16T17:09:54.024Z,96442.47
2022-08-16T17:12:46.391Z,96443.97
2022-08-16T17:15:11.296Z,96434.25
2022-08-16T17:18:00.604Z,96427.69
2022-08-16T17:20:27.753Z,96426.38
2022-08-16T17:22:57.076Z,96421.38
2022-08-16T17:25:27.428Z,96415.47
2022-08-16T17:28:59.772Z,96422.84
2022-08-16T17:30:54.456Z,96431.50
2022-08-16T17:33:24.191Z,96418.38
2022-08-16T17:35:55.640Z,96413.69
2022-08-16T17:38:38.948Z,96420.69
2022-08-16T17:41:15.014Z,96431.41
2022-08-16T17:43:45.948Z,96431.38
2022-08-16T17:46:50.683Z,96425.16
2022-08-16T17:49:04.862Z,96430.16
2022-08-16T17:51:32.512Z,96436.41
2022-08-16T17:54:00.124Z,96439.66
2022-08-16T17:56:29.183Z,96438.66
2022-08-16T17:58:56.824Z,96437.41
2022-08-16T18:01:27.713Z,96441.16
2022-08-16T18:04:06.717Z,96436.16
2022-08-16T18:06:37.444Z,96433.91
2022-08-16T18:09:07.065Z,96439.16
2022-08-16T18:11:37.816Z,96439.16
2022-08-16T18:14:11.088Z,96434.66
2022-08-16T18:16:39.200Z,96438.16
2022-08-16T18:19:06.989Z,96439.91
2022-08-16T18:21:34.921Z,96439.66
2022-08-16T18:24:02.888Z,96446.41
2022-08-16T18:26:30.504Z,96439.91
2022-08-16T18:28:59.566Z,96449.63
2022-08-16T18:31:27.322Z,96442.41
2022-08-16T18:33:55.961Z,96436.91
2022-08-16T18:36:24.437Z,96438.41
2022-08-16T18:38:54.091Z,96439.41
2022-08-16T18:41:24.598Z,96434.91
2022-08-16T18:44:23.787Z,96437.16
2022-08-16T18:46:44.902Z,96435.16
2022-08-16T18:49:16.721Z,96434.41
2022-08-16T18:51:45.953Z,96431.91
2022-08-16T18:54:16.098Z,96432.91
2022-08-16T18:56:56.389Z,96442.66
2022-08-16T18:59:31.436Z,96443.13
2022-08-16T19:02:05.263Z,96443.13
2022-08-16T19:04:50.663Z,96453.59
2022-08-16T19:07:30.547Z,96458.59
2022-08-16T19:10:00.975Z,96464.56
2022-08-16T19:12:37.740Z,96463.34
2022-08-16T19:15:14.133Z,96479.53
2022-08-16T19:17:44.991Z,96474.78
2022-08-16T19:20:15.815Z,96476.03
2022-08-16T19:25:47.653Z,96474.28
2022-08-16T19:28:51.640Z,96480.03
2022-08-16T19:31:13.789Z,96478.53
2022-08-16T19:33:53.896Z,96481.28
2022-08-16T19:36:31.549Z,96482.28
2022-08-16T19:39:12.718Z,96490.47
2022-08-16T19:41:43.657Z,96496.47
2022-08-16T19:44:12.377Z,96498.97
2022-08-16T19:46:41.506Z,96498.47
2022-08-16T19:49:10.592Z,96491.25
2022-08-16T19:51:44.114Z,96486.75
2022-08-16T19:54:11.836Z,96495.97
2022-08-16T19:56:39.578Z,96501.72
2022-08-16T19:59:39.686Z,96506.94
2022-08-16T20:01:54.843Z,96505.69
2022-08-16T20:04:24.120Z,96502.72
2022-08-16T20:06:55.548Z,96497.94
2022-08-16T20:09:23.566Z,96500.66
2022-08-16T20:11:52.850Z,96509.38
2022-08-16T20:14:25.303Z,96491.22
2022-08-16T20:16:56.306Z,96488.00
2022-08-16T20:19:26.390Z,96489.25
2022-08-16T20:21:56.731Z,96488.94
2022-08-16T20:24:35.063Z,96483.69
2022-08-16T20:27:06.059Z,96487.88
2022-08-16T20:29:36.197Z,96507.56
2022-08-16T20:32:05.644Z,96513.00
2022-08-16T20:34:35.288Z,96515.47
2022-08-16T20:37:03.067Z,96523.94
2022-08-16T20:39:30.751Z,96517.22
2022-08-16T20:41:58.887Z,96519.47
2022-08-16T20:44:27.677Z,96523.94
2022-08-16T20:46:55.536Z,96527.94
2022-08-16T20:49:23.186Z,96527.94
2022-08-16T20:51:59.348Z,96540.13
2022-08-16T20:54:28.232Z,96537.63
2022-08-16T20:56:55.890Z,96535.91
2022-08-16T20:59:23.700Z,96540.13
2022-08-16T21:01:51.943Z,96547.56
2022-08-16T21:04:21.209Z,96556.50
2022-08-16T21:06:53.611Z,96563.22
2022-08-16T21:09:26.427Z,96575.38
2022-08-16T21:11:56.178Z,96590.41
2022-08-16T21:14:24.521Z,96601.88
2022-08-16T21:16:52.480Z,96622.75
2022-08-16T21:19:21.908Z,96640.56
2022-08-16T21:21:49.881Z,96629.78
2022-08-16T21:24:17.674Z,96616.41
2022-08-16T21:26:55.487Z,96611.16
2022-08-16T21:29:25.273Z,96603.47
2022-08-16T21:32:10.955Z,96602.44
2022-08-16T21:34:40.837Z,96604.44
2022-08-16T21:37:10.821Z,96588.47
2022-08-16T21:39:39.097Z,96590.66
2022-08-16T21:42:09.886Z,96612.75
2022-08-16T21:44:38.830Z,96635.06
2022-08-16T21:47:08.303Z,96622.03
2022-08-16T21:49:36.416Z,96622.91
